Perks, Illinois
Current Conditions -  °F | °C
As of 7:15 AM on Thursday 27 Nov 2014 (Local Time) from KCIR Reporting Station
Overcast Overcast  
Wind Chill: 29°   Ceiling: 1600
Heat Index: 36°   Visibility: 10mi
Dew Point: 30°   Wind: 9mph
Humidity: 79%   Direction: 340°NNW
Pressure: 30.42"   Gusts: NA
Location:  37.31°N, 89.08°W
Report Text: KCIR 271315Z AUTO 34008KT 10SM OVC016 02/M01 A3042 RMK AO2 T00201013
Loading
Personal Weather Stations






























Interactive Weather Map New forecast layout! Learn more

10-Day Weather Forecast

Advertisements
Track Severe Weather on mobile